sensor_id;sensor_type;location;lat;lon;timestamp;P1;durP1;ratioP1;P2;durP2;ratioP2
68214;SDS011;55036;52.138;5.236;2023-03-04T00:02:15;9.73;;;1.60;;
68214;SDS011;55036;52.138;5.236;2023-03-04T00:04:42;13.20;;;1.73;;
68214;SDS011;55036;52.138;5.236;2023-03-04T00:07:08;10.70;;;2.50;;
68214;SDS011;55036;52.138;5.236;2023-03-04T00:09:35;12.23;;;1.90;;
68214;SDS011;55036;52.138;5.236;2023-03-04T00:12:02;14.95;;;1.92;;
68214;SDS011;55036;52.138;5.236;2023-03-04T00:14:29;10.57;;;2.10;;
68214;SDS011;55036;52.138;5.236;2023-03-04T00:16:55;14.63;;;2.13;;
68214;SDS011;55036;52.138;5.236;2023-03-04T00:19:22;11.77;;;2.03;;
68214;SDS011;55036;52.138;5.236;2023-03-04T00:21:49;8.65;;;1.48;;
68214;SDS011;55036;52.138;5.236;2023-03-04T00:24:15;14.25;;;2.25;;
68214;SDS011;55036;52.138;5.236;2023-03-04T00:26:42;16.75;;;2.00;;
68214;SDS011;55036;52.138;5.236;2023-03-04T00:29:09;11.05;;;1.85;;
68214;SDS011;55036;52.138;5.236;2023-03-04T00:31:36;13.98;;;1.83;;
68214;SDS011;55036;52.138;5.236;2023-03-04T00:34:02;18.27;;;1.95;;
68214;SDS011;55036;52.138;5.236;2023-03-04T00:36:29;9.35;;;1.83;;
68214;SDS011;55036;52.138;5.236;2023-03-04T00:38:56;15.48;;;2.13;;
68214;SDS011;55036;52.138;5.236;2023-03-04T00:41:22;11.90;;;1.42;;
68214;SDS011;55036;52.138;5.236;2023-03-04T00:43:49;7.45;;;1.85;;
68214;SDS011;55036;52.138;5.236;2023-03-04T00:46:16;14.95;;;1.98;;
68214;SDS011;55036;52.138;5.236;2023-03-04T00:48:43;5.85;;;1.65;;
68214;SDS011;55036;52.138;5.236;2023-03-04T00:51:09;15.25;;;2.45;;
68214;SDS011;55036;52.138;5.236;2023-03-04T00:53:36;14.05;;;2.17;;
68214;SDS011;55036;52.138;5.236;2023-03-04T00:56:03;10.52;;;1.60;;
68214;SDS011;55036;52.138;5.236;2023-03-04T00:58:30;14.88;;;1.80;;
68214;SDS011;55036;52.138;5.236;2023-03-04T01:00:57;7.78;;;1.45;;
68214;SDS011;55036;52.138;5.236;2023-03-04T01:03:23;12.68;;;1.60;;
68214;SDS011;55036;52.138;5.236;2023-03-04T01:05:52;13.40;;;1.75;;
68214;SDS011;55036;52.138;5.236;2023-03-04T01:08:18;15.18;;;2.25;;
68214;SDS011;55036;52.138;5.236;2023-03-04T01:10:45;8.13;;;1.30;;
68214;SDS011;55036;52.138;5.236;2023-03-04T01:13:13;17.38;;;1.83;;
68214;SDS011;55036;52.138;5.236;2023-03-04T01:15:40;8.52;;;1.38;;
68214;SDS011;55036;52.138;5.236;2023-03-04T01:18:06;8.27;;;1.85;;
68214;SDS011;55036;52.138;5.236;2023-03-04T01:20:33;9.77;;;1.70;;
68214;SDS011;55036;52.138;5.236;2023-03-04T01:23:00;12.98;;;1.15;;
68214;SDS011;55036;52.138;5.236;2023-03-04T01:25:27;15.02;;;1.60;;
68214;SDS011;55036;52.138;5.236;2023-03-04T01:27:53;14.32;;;2.03;;
68214;SDS011;55036;52.138;5.236;2023-03-04T01:30:20;13.00;;;1.80;;
68214;SDS011;55036;52.138;5.236;2023-03-04T01:32:47;14.75;;;1.98;;
68214;SDS011;55036;52.138;5.236;2023-03-04T01:35:13;12.52;;;1.33;;
68214;SDS011;55036;52.138;5.236;2023-03-04T01:37:40;11.88;;;1.63;;
68214;SDS011;55036;52.138;5.236;2023-03-04T01:40:07;7.80;;;1.48;;
68214;SDS011;55036;52.138;5.236;2023-03-04T01:42:35;9.25;;;1.73;;
68214;SDS011;55036;52.138;5.236;2023-03-04T01:45:02;10.93;;;1.58;;
68214;SDS011;55036;52.138;5.236;2023-03-04T01:47:30;14.32;;;2.00;;
68214;SDS011;55036;52.138;5.236;2023-03-04T01:50:00;14.02;;;2.10;;
68214;SDS011;55036;52.138;5.236;2023-03-04T01:52:29;9.52;;;1.73;;
68214;SDS011;55036;52.138;5.236;2023-03-04T01:54:56;8.50;;;1.42;;
68214;SDS011;55036;52.138;5.236;2023-03-04T01:57:24;13.20;;;1.90;;
68214;SDS011;55036;52.138;5.236;2023-03-04T02:02:40;8.50;;;1.45;;
68214;SDS011;55036;52.138;5.236;2023-03-04T02:05:06;7.88;;;1.50;;
68214;SDS011;55036;52.138;5.236;2023-03-04T02:07:33;9.18;;;1.67;;
68214;SDS011;55036;52.138;5.236;2023-03-04T02:10:00;12.05;;;1.80;;
68214;SDS011;55036;52.138;5.236;2023-03-04T02:12:27;9.35;;;1.45;;
68214;SDS011;55036;52.138;5.236;2023-03-04T02:14:54;10.55;;;1.40;;
68214;SDS011;55036;52.138;5.236;2023-03-04T02:17:27;9.52;;;1.77;;
68214;SDS011;55036;52.138;5.236;2023-03-04T02:22:42;8.82;;;1.48;;
68214;SDS011;55036;52.138;5.236;2023-03-04T02:25:32;8.52;;;1.40;;
68214;SDS011;55036;52.138;5.236;2023-03-04T02:28:18;7.40;;;1.40;;
68214;SDS011;55036;52.138;5.236;2023-03-04T02:30:44;10.88;;;1.95;;
68214;SDS011;55036;52.138;5.236;2023-03-04T02:33:16;9.13;;;1.40;;
68214;SDS011;55036;52.138;5.236;2023-03-04T02:35:44;13.93;;;2.80;;
68214;SDS011;55036;52.138;5.236;2023-03-04T02:38:11;10.52;;;1.75;;
68214;SDS011;55036;52.138;5.236;2023-03-04T02:40:38;12.68;;;2.47;;
68214;SDS011;55036;52.138;5.236;2023-03-04T02:43:09;11.15;;;1.50;;
68214;SDS011;55036;52.138;5.236;2023-03-04T02:45:39;12.10;;;1.70;;
68214;SDS011;55036;52.138;5.236;2023-03-04T02:48:11;10.65;;;1.85;;
68214;SDS011;55036;52.138;5.236;2023-03-04T02:50:46;13.65;;;1.73;;
68214;SDS011;55036;52.138;5.236;2023-03-04T02:53:15;11.13;;;1.60;;
68214;SDS011;55036;52.138;5.236;2023-03-04T02:55:42;10.45;;;1.30;;
68214;SDS011;55036;52.138;5.236;2023-03-04T02:58:09;14.05;;;2.08;;
68214;SDS011;55036;52.138;5.236;2023-03-04T03:00:36;12.38;;;1.67;;
68214;SDS011;55036;52.138;5.236;2023-03-04T03:03:03;9.98;;;1.88;;
68214;SDS011;55036;52.138;5.236;2023-03-04T03:05:32;8.13;;;1.48;;
68214;SDS011;55036;52.138;5.236;2023-03-04T03:07:59;13.70;;;1.52;;
68214;SDS011;55036;52.138;5.236;2023-03-04T03:10:26;15.52;;;1.90;;
68214;SDS011;55036;52.138;5.236;2023-03-04T03:12:53;7.43;;;1.45;;
68214;SDS011;55036;52.138;5.236;2023-03-04T03:15:19;11.35;;;1.70;;
68214;SDS011;55036;52.138;5.236;2023-03-04T03:17:46;8.13;;;1.38;;
68214;SDS011;55036;52.138;5.236;2023-03-04T03:20:13;12.20;;;1.65;;
68214;SDS011;55036;52.138;5.236;2023-03-04T03:22:40;10.75;;;1.70;;
68214;SDS011;55036;52.138;5.236;2023-03-04T03:25:07;9.30;;;1.33;;
68214;SDS011;55036;52.138;5.236;2023-03-04T03:27:36;5.13;;;1.23;;
68214;SDS011;55036;52.138;5.236;2023-03-04T03:30:03;8.20;;;1.55;;
68214;SDS011;55036;52.138;5.236;2023-03-04T03:32:31;10.15;;;1.38;;
68214;SDS011;55036;52.138;5.236;2023-03-04T03:34:58;13.85;;;1.30;;
68214;SDS011;55036;52.138;5.236;2023-03-04T03:37:24;13.65;;;1.30;;
68214;SDS011;55036;52.138;5.236;2023-03-04T03:39:51;9.15;;;1.70;;
68214;SDS011;55036;52.138;5.236;2023-03-04T03:42:18;12.50;;;1.63;;
68214;SDS011;55036;52.138;5.236;2023-03-04T03:44:44;11.20;;;2.25;;
68214;SDS011;55036;52.138;5.236;2023-03-04T03:47:11;5.85;;;0.98;;
68214;SDS011;55036;52.138;5.236;2023-03-04T03:49:38;11.57;;;2.15;;
68214;SDS011;55036;52.138;5.236;2023-03-04T03:52:04;12.00;;;1.48;;
68214;SDS011;55036;52.138;5.236;2023-03-04T03:54:33;10.38;;;1.55;;
68214;SDS011;55036;52.138;5.236;2023-03-04T03:57:00;9.63;;;1.40;;
68214;SDS011;55036;52.138;5.236;2023-03-04T03:59:27;8.45;;;1.20;;
68214;SDS011;55036;52.138;5.236;2023-03-04T04:01:53;12.40;;;1.95;;
68214;SDS011;55036;52.138;5.236;2023-03-04T04:04:20;10.48;;;2.17;;
68214;SDS011;55036;52.138;5.236;2023-03-04T04:06:47;10.10;;;1.33;;
68214;SDS011;55036;52.138;5.236;2023-03-04T04:09:13;6.28;;;1.08;;
68214;SDS011;55036;52.138;5.236;2023-03-04T04:11:40;9.35;;;1.27;;
68214;SDS011;55036;52.138;5.236;2023-03-04T04:14:08;6.18;;;1.33;;
68214;SDS011;55036;52.138;5.236;2023-03-04T04:16:37;11.80;;;1.38;;
68214;SDS011;55036;52.138;5.236;2023-03-04T04:19:04;6.45;;;1.42;;
68214;SDS011;55036;52.138;5.236;2023-03-04T04:21:31;8.10;;;1.70;;
68214;SDS011;55036;52.138;5.236;2023-03-04T04:23:57;9.80;;;1.13;;
68214;SDS011;55036;52.138;5.236;2023-03-04T04:26:24;7.47;;;1.50;;
68214;SDS011;55036;52.138;5.236;2023-03-04T04:28:51;6.65;;;1.08;;
68214;SDS011;55036;52.138;5.236;2023-03-04T04:31:17;7.10;;;1.50;;
68214;SDS011;55036;52.138;5.236;2023-03-04T04:33:44;11.98;;;1.48;;
68214;SDS011;55036;52.138;5.236;2023-03-04T04:36:14;8.25;;;1.25;;
68214;SDS011;55036;52.138;5.236;2023-03-04T04:38:42;5.53;;;1.63;;
68214;SDS011;55036;52.138;5.236;2023-03-04T04:41:15;9.13;;;1.35;;
68214;SDS011;55036;52.138;5.236;2023-03-04T04:43:44;8.23;;;1.30;;
68214;SDS011;55036;52.138;5.236;2023-03-04T04:46:12;7.00;;;1.38;;
68214;SDS011;55036;52.138;5.236;2023-03-04T04:48:39;6.28;;;1.25;;
68214;SDS011;55036;52.138;5.236;2023-03-04T04:51:06;9.98;;;2.00;;
68214;SDS011;55036;52.138;5.236;2023-03-04T04:53:33;9.38;;;1.75;;
68214;SDS011;55036;52.138;5.236;2023-03-04T04:56:07;10.02;;;1.70;;
68214;SDS011;55036;52.138;5.236;2023-03-04T04:58:38;12.85;;;1.35;;
68214;SDS011;55036;52.138;5.236;2023-03-04T05:01:05;6.78;;;1.40;;
68214;SDS011;55036;52.138;5.236;2023-03-04T05:03:32;10.40;;;1.08;;
68214;SDS011;55036;52.138;5.236;2023-03-04T05:06:00;6.90;;;1.40;;
68214;SDS011;55036;52.138;5.236;2023-03-04T05:08:27;12.05;;;1.80;;
68214;SDS011;55036;52.138;5.236;2023-03-04T05:10:54;9.45;;;1.35;;
68214;SDS011;55036;52.138;5.236;2023-03-04T05:13:21;10.02;;;1.10;;
68214;SDS011;55036;52.138;5.236;2023-03-04T05:15:49;8.70;;;1.50;;
68214;SDS011;55036;52.138;5.236;2023-03-04T05:18:21;9.05;;;1.05;;
68214;SDS011;55036;52.138;5.236;2023-03-04T05:21:07;12.18;;;2.10;;
68214;SDS011;55036;52.138;5.236;2023-03-04T05:23:35;6.03;;;1.23;;
68214;SDS011;55036;52.138;5.236;2023-03-04T05:26:04;7.50;;;1.30;;
68214;SDS011;55036;52.138;5.236;2023-03-04T05:28:32;8.82;;;1.40;;
68214;SDS011;55036;52.138;5.236;2023-03-04T05:31:00;15.85;;;3.03;;
68214;SDS011;55036;52.138;5.236;2023-03-04T05:33:27;11.98;;;1.90;;
68214;SDS011;55036;52.138;5.236;2023-03-04T05:35:54;6.10;;;1.33;;
68214;SDS011;55036;52.138;5.236;2023-03-04T05:38:21;6.85;;;1.38;;
68214;SDS011;55036;52.138;5.236;2023-03-04T05:40:48;8.30;;;1.35;;
68214;SDS011;55036;52.138;5.236;2023-03-04T05:43:15;10.15;;;1.55;;
68214;SDS011;55036;52.138;5.236;2023-03-04T05:45:42;7.90;;;1.50;;
68214;SDS011;55036;52.138;5.236;2023-03-04T05:48:09;11.82;;;1.42;;
68214;SDS011;55036;52.138;5.236;2023-03-04T05:50:36;6.90;;;1.38;;
68214;SDS011;55036;52.138;5.236;2023-03-04T05:53:03;12.45;;;1.58;;
68214;SDS011;55036;52.138;5.236;2023-03-04T05:55:29;4.97;;;1.30;;
68214;SDS011;55036;52.138;5.236;2023-03-04T05:57:56;8.52;;;1.40;;
68214;SDS011;55036;52.138;5.236;2023-03-04T06:00:23;6.47;;;1.17;;
68214;SDS011;55036;52.138;5.236;2023-03-04T06:02:50;8.15;;;1.48;;
68214;SDS011;55036;52.138;5.236;2023-03-04T06:05:17;12.90;;;1.63;;
68214;SDS011;55036;52.138;5.236;2023-03-04T06:07:45;9.95;;;1.42;;
68214;SDS011;55036;52.138;5.236;2023-03-04T06:10:12;6.15;;;1.50;;
68214;SDS011;55036;52.138;5.236;2023-03-04T06:12:41;8.30;;;1.77;;
68214;SDS011;55036;52.138;5.236;2023-03-04T06:15:08;8.90;;;1.88;;
68214;SDS011;55036;52.138;5.236;2023-03-04T06:17:36;10.10;;;1.65;;
68214;SDS011;55036;52.138;5.236;2023-03-04T06:20:06;11.77;;;1.35;;
68214;SDS011;55036;52.138;5.236;2023-03-04T06:22:34;8.23;;;1.33;;
68214;SDS011;55036;52.138;5.236;2023-03-04T06:25:01;11.38;;;1.85;;
68214;SDS011;55036;52.138;5.236;2023-03-04T06:27:28;10.38;;;1.75;;
68214;SDS011;55036;52.138;5.236;2023-03-04T06:29:55;9.35;;;1.58;;
68214;SDS011;55036;52.138;5.236;2023-03-04T06:32:22;11.60;;;1.55;;
68214;SDS011;55036;52.138;5.236;2023-03-04T06:34:49;6.05;;;1.73;;
68214;SDS011;55036;52.138;5.236;2023-03-04T06:37:16;6.88;;;1.52;;
68214;SDS011;55036;52.138;5.236;2023-03-04T06:39:43;5.65;;;1.73;;
68214;SDS011;55036;52.138;5.236;2023-03-04T06:42:11;8.63;;;1.50;;
68214;SDS011;55036;52.138;5.236;2023-03-04T06:44:38;10.27;;;1.33;;
68214;SDS011;55036;52.138;5.236;2023-03-04T06:47:05;7.38;;;1.33;;
68214;SDS011;55036;52.138;5.236;2023-03-04T06:49:32;8.95;;;2.42;;
68214;SDS011;55036;52.138;5.236;2023-03-04T06:51:58;6.47;;;1.25;;
68214;SDS011;55036;52.138;5.236;2023-03-04T06:54:25;5.10;;;1.13;;
68214;SDS011;55036;52.138;5.236;2023-03-04T06:56:52;7.25;;;1.05;;
68214;SDS011;55036;52.138;5.236;2023-03-04T06:59:19;7.60;;;1.75;;
68214;SDS011;55036;52.138;5.236;2023-03-04T07:01:45;5.35;;;1.38;;
68214;SDS011;55036;52.138;5.236;2023-03-04T07:04:12;8.07;;;1.55;;
68214;SDS011;55036;52.138;5.236;2023-03-04T07:06:39;9.25;;;1.90;;
68214;SDS011;55036;52.138;5.236;2023-03-04T07:09:06;10.00;;;1.50;;
68214;SDS011;55036;52.138;5.236;2023-03-04T07:11:33;9.02;;;1.30;;
68214;SDS011;55036;52.138;5.236;2023-03-04T07:14:00;12.50;;;1.70;;
68214;SDS011;55036;52.138;5.236;2023-03-04T07:16:26;9.73;;;1.55;;
68214;SDS011;55036;52.138;5.236;2023-03-04T07:18:53;7.47;;;1.27;;
68214;SDS011;55036;52.138;5.236;2023-03-04T07:21:20;4.82;;;1.52;;
68214;SDS011;55036;52.138;5.236;2023-03-04T07:23:47;9.63;;;1.60;;
68214;SDS011;55036;52.138;5.236;2023-03-04T07:26:14;6.70;;;1.60;;
68214;SDS011;55036;52.138;5.236;2023-03-04T07:28:40;5.95;;;1.15;;
68214;SDS011;55036;52.138;5.236;2023-03-04T07:34:08;7.57;;;1.77;;
68214;SDS011;55036;52.138;5.236;2023-03-04T07:36:37;6.78;;;3.05;;
68214;SDS011;55036;52.138;5.236;2023-03-04T07:39:05;7.45;;;1.38;;
68214;SDS011;55036;52.138;5.236;2023-03-04T07:41:32;7.60;;;1.00;;
68214;SDS011;55036;52.138;5.236;2023-03-04T07:44:03;4.45;;;1.08;;
68214;SDS011;55036;52.138;5.236;2023-03-04T07:46:31;6.97;;;0.95;;
68214;SDS011;55036;52.138;5.236;2023-03-04T07:48:58;4.55;;;0.70;;
68214;SDS011;55036;52.138;5.236;2023-03-04T07:51:26;5.25;;;1.23;;
68214;SDS011;55036;52.138;5.236;2023-03-04T07:53:55;7.50;;;0.80;;
68214;SDS011;55036;52.138;5.236;2023-03-04T07:56:24;4.93;;;1.10;;
68214;SDS011;55036;52.138;5.236;2023-03-04T07:58:52;6.90;;;1.70;;
68214;SDS011;55036;52.138;5.236;2023-03-04T08:01:22;7.45;;;1.10;;
68214;SDS011;55036;52.138;5.236;2023-03-04T08:03:52;2.50;;;0.80;;
68214;SDS011;55036;52.138;5.236;2023-03-04T08:06:19;4.13;;;1.30;;
68214;SDS011;55036;52.138;5.236;2023-03-04T08:08:48;3.80;;;1.05;;
68214;SDS011;55036;52.138;5.236;2023-03-04T08:11:17;9.30;;;1.30;;
68214;SDS011;55036;52.138;5.236;2023-03-04T08:13:45;5.07;;;0.95;;
68214;SDS011;55036;52.138;5.236;2023-03-04T08:16:12;4.43;;;1.70;;
68214;SDS011;55036;52.138;5.236;2023-03-04T08:18:41;9.45;;;1.30;;
68214;SDS011;55036;52.138;5.236;2023-03-04T08:21:13;7.68;;;1.30;;
68214;SDS011;55036;52.138;5.236;2023-03-04T08:23:41;5.45;;;1.60;;
68214;SDS011;55036;52.138;5.236;2023-03-04T08:26:09;5.78;;;1.10;;
68214;SDS011;55036;52.138;5.236;2023-03-04T08:28:56;9.05;;;1.15;;
68214;SDS011;55036;52.138;5.236;2023-03-04T08:31:23;4.88;;;0.98;;
68214;SDS011;55036;52.138;5.236;2023-03-04T08:33:50;5.35;;;1.08;;
68214;SDS011;55036;52.138;5.236;2023-03-04T08:36:18;4.40;;;0.90;;
68214;SDS011;55036;52.138;5.236;2023-03-04T08:38:45;4.68;;;1.08;;
68214;SDS011;55036;52.138;5.236;2023-03-04T08:41:12;5.25;;;1.25;;
68214;SDS011;55036;52.138;5.236;2023-03-04T08:43:40;10.23;;;1.90;;
68214;SDS011;55036;52.138;5.236;2023-03-04T08:46:07;5.43;;;1.08;;
68214;SDS011;55036;52.138;5.236;2023-03-04T08:48:35;4.20;;;1.00;;
68214;SDS011;55036;52.138;5.236;2023-03-04T08:51:06;4.05;;;0.80;;
68214;SDS011;55036;52.138;5.236;2023-03-04T08:53:38;5.30;;;1.17;;
68214;SDS011;55036;52.138;5.236;2023-03-04T08:56:05;3.78;;;0.70;;
68214;SDS011;55036;52.138;5.236;2023-03-04T08:58:32;1.55;;;0.63;;
68214;SDS011;55036;52.138;5.236;2023-03-04T09:00:59;6.53;;;1.40;;
68214;SDS011;55036;52.138;5.236;2023-03-04T09:03:26;4.25;;;0.85;;
68214;SDS011;55036;52.138;5.236;2023-03-04T09:05:53;4.20;;;0.90;;
68214;SDS011;55036;52.138;5.236;2023-03-04T09:08:20;5.38;;;1.00;;
68214;SDS011;55036;52.138;5.236;2023-03-04T09:10:50;2.97;;;0.70;;
68214;SDS011;55036;52.138;5.236;2023-03-04T09:13:18;3.03;;;0.77;;
68214;SDS011;55036;52.138;5.236;2023-03-04T09:15:46;3.53;;;1.33;;
68214;SDS011;55036;52.138;5.236;2023-03-04T09:18:14;5.55;;;0.95;;
68214;SDS011;55036;52.138;5.236;2023-03-04T09:20:46;0.82;;;0.63;;
68214;SDS011;55036;52.138;5.236;2023-03-04T09:23:13;4.90;;;0.90;;
68214;SDS011;55036;52.138;5.236;2023-03-04T09:25:41;2.95;;;0.85;;
68214;SDS011;55036;52.138;5.236;2023-03-04T09:28:09;4.38;;;0.88;;
68214;SDS011;55036;52.138;5.236;2023-03-04T09:30:37;5.68;;;0.82;;
68214;SDS011;55036;52.138;5.236;2023-03-04T09:33:04;1.33;;;0.60;;
68214;SDS011;55036;52.138;5.236;2023-03-04T09:35:30;3.08;;;0.80;;
68214;SDS011;55036;52.138;5.236;2023-03-04T09:37:57;3.63;;;0.73;;
68214;SDS011;55036;52.138;5.236;2023-03-04T09:40:31;4.88;;;0.77;;
68214;SDS011;55036;52.138;5.236;2023-03-04T09:43:10;2.05;;;0.68;;
68214;SDS011;55036;52.138;5.236;2023-03-04T09:45:47;4.40;;;1.02;;
68214;SDS011;55036;52.138;5.236;2023-03-04T09:48:16;5.70;;;1.02;;
68214;SDS011;55036;52.138;5.236;2023-03-04T09:50:54;3.70;;;0.70;;
68214;SDS011;55036;52.138;5.236;2023-03-04T09:56:18;3.58;;;0.85;;
68214;SDS011;55036;52.138;5.236;2023-03-04T10:04:15;3.63;;;0.82;;
68214;SDS011;55036;52.138;5.236;2023-03-04T10:06:55;1.77;;;0.57;;
68214;SDS011;55036;52.138;5.236;2023-03-04T10:09:27;3.03;;;0.70;;
68214;SDS011;55036;52.138;5.236;2023-03-04T10:12:11;2.80;;;0.68;;
68214;SDS011;55036;52.138;5.236;2023-03-04T10:14:48;2.15;;;0.70;;
68214;SDS011;55036;52.138;5.236;2023-03-04T10:17:36;1.77;;;0.50;;
68214;SDS011;55036;52.138;5.236;2023-03-04T10:22:45;3.58;;;0.50;;
68214;SDS011;55036;52.138;5.236;2023-03-04T10:25:32;6.25;;;0.60;;
68214;SDS011;55036;52.138;5.236;2023-03-04T10:28:10;4.00;;;0.60;;
68214;SDS011;55036;52.138;5.236;2023-03-04T10:33:42;1.92;;;0.50;;
68214;SDS011;55036;52.138;5.236;2023-03-04T10:39:08;2.90;;;0.43;;
68214;SDS011;55036;52.138;5.236;2023-03-04T10:42:22;1.95;;;0.70;;
68214;SDS011;55036;52.138;5.236;2023-03-04T10:44:42;1.85;;;0.38;;
68214;SDS011;55036;52.138;5.236;2023-03-04T10:47:22;1.10;;;0.50;;
68214;SDS011;55036;52.138;5.236;2023-03-04T10:52:33;1.42;;;0.45;;
68214;SDS011;55036;52.138;5.236;2023-03-04T10:55:21;0.80;;;0.50;;
68214;SDS011;55036;52.138;5.236;2023-03-04T10:57:56;2.73;;;0.70;;
68214;SDS011;55036;52.138;5.236;2023-03-04T11:00:29;3.15;;;1.05;;
68214;SDS011;55036;52.138;5.236;2023-03-04T11:08:51;5.03;;;0.80;;
68214;SDS011;55036;52.138;5.236;2023-03-04T11:13:51;3.50;;;0.75;;
68214;SDS011;55036;52.138;5.236;2023-03-04T11:16:24;3.65;;;0.80;;
68214;SDS011;55036;52.138;5.236;2023-03-04T11:18:58;2.05;;;0.52;;
68214;SDS011;55036;52.138;5.236;2023-03-04T11:21:36;3.47;;;0.63;;
68214;SDS011;55036;52.138;5.236;2023-03-04T11:24:18;1.52;;;0.43;;
68214;SDS011;55036;52.138;5.236;2023-03-04T11:27:03;1.35;;;0.50;;
68214;SDS011;55036;52.138;5.236;2023-03-04T11:29:44;2.38;;;0.43;;
68214;SDS011;55036;52.138;5.236;2023-03-04T11:32:18;1.20;;;0.40;;
68214;SDS011;55036;52.138;5.236;2023-03-04T11:34:49;2.30;;;0.55;;
68214;SDS011;55036;52.138;5.236;2023-03-04T11:40:11;3.05;;;0.40;;
68214;SDS011;55036;52.138;5.236;2023-03-04T11:42:40;1.80;;;0.43;;
68214;SDS011;55036;52.138;5.236;2023-03-04T11:45:47;2.00;;;0.47;;
68214;SDS011;55036;52.138;5.236;2023-03-04T11:51:18;2.47;;;0.52;;
68214;SDS011;55036;52.138;5.236;2023-03-04T11:54:07;3.28;;;0.90;;
68214;SDS011;55036;52.138;5.236;2023-03-04T11:57:02;3.38;;;0.63;;
68214;SDS011;55036;52.138;5.236;2023-03-04T12:00:00;7.43;;;0.70;;
68214;SDS011;55036;52.138;5.236;2023-03-04T12:02:28;5.93;;;0.75;;
68214;SDS011;55036;52.138;5.236;2023-03-04T12:05:16;3.25;;;0.55;;
68214;SDS011;55036;52.138;5.236;2023-03-04T12:07:56;3.08;;;0.63;;
68214;SDS011;55036;52.138;5.236;2023-03-04T12:13:15;5.97;;;1.33;;
68214;SDS011;55036;52.138;5.236;2023-03-04T12:16:02;5.88;;;1.08;;
68214;SDS011;55036;52.138;5.236;2023-03-04T12:21:39;6.38;;;0.80;;
68214;SDS011;55036;52.138;5.236;2023-03-04T12:30:01;7.10;;;1.05;;
68214;SDS011;55036;52.138;5.236;2023-03-04T12:35:30;8.90;;;1.50;;
68214;SDS011;55036;52.138;5.236;2023-03-04T12:38:30;8.02;;;1.80;;
68214;SDS011;55036;52.138;5.236;2023-03-04T12:43:58;8.88;;;1.30;;
68214;SDS011;55036;52.138;5.236;2023-03-04T12:52:14;7.97;;;1.42;;
68214;SDS011;55036;52.138;5.236;2023-03-04T12:54:56;9.05;;;1.38;;
68214;SDS011;55036;52.138;5.236;2023-03-04T12:57:26;8.93;;;1.52;;
68214;SDS011;55036;52.138;5.236;2023-03-04T12:59:59;10.73;;;1.27;;
68214;SDS011;55036;52.138;5.236;2023-03-04T13:05:23;8.18;;;1.50;;
68214;SDS011;55036;52.138;5.236;2023-03-04T13:08:12;12.32;;;1.88;;
68214;SDS011;55036;52.138;5.236;2023-03-04T13:10:50;10.65;;;1.50;;
68214;SDS011;55036;52.138;5.236;2023-03-04T13:13:37;13.13;;;1.92;;
68214;SDS011;55036;52.138;5.236;2023-03-04T13:18:53;15.07;;;2.20;;
68214;SDS011;55036;52.138;5.236;2023-03-04T13:23:49;9.85;;;2.20;;
68214;SDS011;55036;52.138;5.236;2023-03-04T13:26:26;11.00;;;1.75;;
68214;SDS011;55036;52.138;5.236;2023-03-04T13:37:24;11.55;;;1.33;;
68214;SDS011;55036;52.138;5.236;2023-03-04T13:42:47;9.02;;;1.60;;
68214;SDS011;55036;52.138;5.236;2023-03-04T13:45:48;11.32;;;1.83;;
68214;SDS011;55036;52.138;5.236;2023-03-04T13:48:21;6.72;;;1.30;;
68214;SDS011;55036;52.138;5.236;2023-03-04T13:50:51;9.27;;;1.20;;
68214;SDS011;55036;52.138;5.236;2023-03-04T13:58:45;12.40;;;2.03;;
68214;SDS011;55036;52.138;5.236;2023-03-04T14:01:26;9.13;;;1.55;;
68214;SDS011;55036;52.138;5.236;2023-03-04T14:04:00;8.13;;;2.15;;
68214;SDS011;55036;52.138;5.236;2023-03-04T14:06:40;13.05;;;1.58;;
68214;SDS011;55036;52.138;5.236;2023-03-04T14:09:11;9.27;;;1.30;;
68214;SDS011;55036;52.138;5.236;2023-03-04T14:11:41;11.30;;;1.58;;
68214;SDS011;55036;52.138;5.236;2023-03-04T14:14:10;7.43;;;1.20;;
68214;SDS011;55036;52.138;5.236;2023-03-04T14:16:45;9.55;;;1.60;;
68214;SDS011;55036;52.138;5.236;2023-03-04T14:19:37;5.10;;;1.05;;
68214;SDS011;55036;52.138;5.236;2023-03-04T14:25:05;6.47;;;1.02;;
68214;SDS011;55036;52.138;5.236;2023-03-04T14:27:45;7.70;;;1.70;;
68214;SDS011;55036;52.138;5.236;2023-03-04T14:30:22;4.55;;;0.80;;
68214;SDS011;55036;52.138;5.236;2023-03-04T14:33:08;4.68;;;0.90;;
68214;SDS011;55036;52.138;5.236;2023-03-04T14:35:46;6.50;;;1.02;;
68214;SDS011;55036;52.138;5.236;2023-03-04T14:38:31;10.90;;;1.20;;
68214;SDS011;55036;52.138;5.236;2023-03-04T14:43:36;7.75;;;1.23;;
68214;SDS011;55036;52.138;5.236;2023-03-04T14:46:19;11.57;;;1.48;;
68214;SDS011;55036;52.138;5.236;2023-03-04T14:48:51;6.30;;;1.27;;
68214;SDS011;55036;52.138;5.236;2023-03-04T14:53:56;6.15;;;1.10;;
68214;SDS011;55036;52.138;5.236;2023-03-04T14:56:30;6.53;;;1.20;;
68214;SDS011;55036;52.138;5.236;2023-03-04T14:59:00;4.80;;;0.90;;
68214;SDS011;55036;52.138;5.236;2023-03-04T15:01:28;8.90;;;1.05;;
68214;SDS011;55036;52.138;5.236;2023-03-04T15:04:04;3.10;;;1.38;;
68214;SDS011;55036;52.138;5.236;2023-03-04T15:06:37;6.00;;;1.13;;
68214;SDS011;55036;52.138;5.236;2023-03-04T15:11:47;4.68;;;1.05;;
68214;SDS011;55036;52.138;5.236;2023-03-04T15:20:17;8.77;;;0.82;;
68214;SDS011;55036;52.138;5.236;2023-03-04T15:25:18;3.10;;;0.70;;
68214;SDS011;55036;52.138;5.236;2023-03-04T15:27:46;3.67;;;0.88;;
68214;SDS011;55036;52.138;5.236;2023-03-04T15:32:47;4.07;;;0.80;;
68214;SDS011;55036;52.138;5.236;2023-03-04T15:35:15;3.80;;;1.00;;
68214;SDS011;55036;52.138;5.236;2023-03-04T15:37:43;8.20;;;1.05;;
68214;SDS011;55036;52.138;5.236;2023-03-04T15:40:14;2.75;;;0.82;;
68214;SDS011;55036;52.138;5.236;2023-03-04T15:42:45;3.80;;;0.63;;
68214;SDS011;55036;52.138;5.236;2023-03-04T15:45:23;5.38;;;3.58;;
68214;SDS011;55036;52.138;5.236;2023-03-04T15:47:57;10.85;;;2.30;;
68214;SDS011;55036;52.138;5.236;2023-03-04T15:50:27;5.40;;;1.83;;
68214;SDS011;55036;52.138;5.236;2023-03-04T15:52:55;6.57;;;1.40;;
68214;SDS011;55036;52.138;5.236;2023-03-04T15:55:27;3.88;;;1.52;;
68214;SDS011;55036;52.138;5.236;2023-03-04T15:57:55;4.32;;;1.23;;
68214;SDS011;55036;52.138;5.236;2023-03-04T16:00:23;3.60;;;0.93;;
68214;SDS011;55036;52.138;5.236;2023-03-04T16:02:50;5.50;;;1.20;;
68214;SDS011;55036;52.138;5.236;2023-03-04T16:05:17;8.93;;;1.40;;
68214;SDS011;55036;52.138;5.236;2023-03-04T16:07:44;8.15;;;1.73;;
68214;SDS011;55036;52.138;5.236;2023-03-04T16:10:17;5.65;;;2.08;;
68214;SDS011;55036;52.138;5.236;2023-03-04T16:12:46;9.15;;;3.88;;
68214;SDS011;55036;52.138;5.236;2023-03-04T16:15:23;5.22;;;2.38;;
68214;SDS011;55036;52.138;5.236;2023-03-04T16:17:52;7.97;;;2.70;;
68214;SDS011;55036;52.138;5.236;2023-03-04T16:20:20;12.20;;;4.03;;
68214;SDS011;55036;52.138;5.236;2023-03-04T16:22:54;6.97;;;2.47;;
68214;SDS011;55036;52.138;5.236;2023-03-04T16:25:23;10.43;;;2.47;;
68214;SDS011;55036;52.138;5.236;2023-03-04T16:27:51;10.05;;;3.42;;
68214;SDS011;55036;52.138;5.236;2023-03-04T16:30:22;7.95;;;1.90;;
68214;SDS011;55036;52.138;5.236;2023-03-04T16:32:50;7.57;;;1.17;;
68214;SDS011;55036;52.138;5.236;2023-03-04T16:35:17;5.70;;;1.05;;
68214;SDS011;55036;52.138;5.236;2023-03-04T16:37:45;8.82;;;1.40;;
68214;SDS011;55036;52.138;5.236;2023-03-04T16:40:13;8.60;;;2.30;;
68214;SDS011;55036;52.138;5.236;2023-03-04T16:42:41;9.98;;;1.52;;
68214;SDS011;55036;52.138;5.236;2023-03-04T16:45:27;5.60;;;1.25;;
68214;SDS011;55036;52.138;5.236;2023-03-04T16:47:55;8.20;;;1.15;;
68214;SDS011;55036;52.138;5.236;2023-03-04T16:50:23;5.22;;;1.60;;
68214;SDS011;55036;52.138;5.236;2023-03-04T16:52:52;5.50;;;1.58;;
68214;SDS011;55036;52.138;5.236;2023-03-04T16:55:24;8.93;;;1.65;;